createdAt,value
2018-10-19T00:00:45.062Z,70.20
2018-10-19T00:03:48.026Z,69.40
2018-10-19T00:06:50.996Z,69.80
2018-10-19T00:09:53.999Z,69.00
2018-10-19T00:16:20.851Z,68.80
2018-10-19T00:19:23.791Z,69.70
2018-10-19T00:22:26.761Z,69.30
2018-10-19T00:25:29.701Z,69.30
2018-10-19T00:28:32.657Z,69.30
2018-10-19T00:31:35.668Z,68.90
2018-10-19T00:34:38.598Z,68.90
2018-10-19T00:37:41.523Z,69.10
2018-10-19T00:40:44.476Z,69.20
2018-10-19T00:43:47.461Z,69.10
2018-10-19T00:46:50.444Z,69.10
2018-10-19T00:49:53.441Z,68.90
2018-10-19T00:52:56.713Z,69.20
2018-10-19T00:55:59.704Z,68.80
2018-10-19T00:59:02.734Z,69.30
2018-10-19T01:02:05.694Z,69.60
2018-10-19T01:05:08.673Z,70.00
2018-10-19T01:08:11.945Z,69.80
2018-10-19T01:11:15.041Z,69.50
2018-10-19T01:14:17.955Z,69.80
2018-10-19T01:17:20.945Z,69.40
2018-10-19T01:20:23.898Z,69.70
2018-10-19T01:23:26.862Z,69.70
2018-10-19T01:26:29.814Z,70.20
2018-10-19T01:29:32.769Z,70.20
2018-10-19T01:32:36.110Z,69.90
2018-10-19T01:35:39.109Z,69.90
2018-10-19T01:38:42.135Z,69.70
2018-10-19T01:41:45.132Z,70.50
2018-10-19T01:44:48.102Z,69.90
2018-10-19T01:47:51.051Z,69.90
2018-10-19T01:50:54.138Z,70.00
2018-10-19T01:53:57.085Z,70.00
2018-10-19T01:57:00.028Z,69.80
2018-10-19T02:00:03.334Z,70.30
2018-10-19T02:03:06.389Z,69.60
2018-10-19T02:06:09.373Z,69.60
2018-10-19T02:09:12.426Z,70.00
2018-10-19T02:12:15.363Z,70.00
2018-10-19T02:15:18.377Z,70.00
2018-10-19T02:18:21.243Z,69.90
2018-10-19T02:21:24.202Z,70.20
2018-10-19T02:24:27.199Z,70.10
2018-10-19T02:27:30.234Z,70.70
2018-10-19T02:30:33.165Z,70.70
2018-10-19T02:33:36.126Z,70.70
2018-10-19T02:36:39.053Z,70.80
2018-10-19T02:39:41.974Z,70.50
2018-10-19T02:42:44.925Z,70.70
2018-10-19T02:45:47.861Z,70.50
2018-10-19T02:48:50.804Z,70.60
2018-10-19T02:51:53.735Z,70.50
2018-10-19T02:54:56.713Z,70.50
2018-10-19T02:57:59.705Z,70.50
2018-10-19T03:01:02.665Z,71.40
2018-10-19T03:04:05.690Z,70.50
2018-10-19T03:07:08.661Z,70.60
2018-10-19T03:10:11.614Z,70.50
2018-10-19T03:13:14.568Z,70.60
2018-10-19T03:16:17.525Z,70.10
2018-10-19T03:19:20.529Z,69.50
2018-10-19T03:22:23.465Z,69.80
2018-10-19T03:25:26.493Z,69.80
2018-10-19T03:28:29.445Z,69.90
2018-10-19T03:31:32.457Z,69.80
2018-10-19T03:34:35.410Z,69.90
2018-10-19T03:37:38.349Z,70.20
2018-10-19T03:40:41.285Z,70.10
2018-10-19T03:43:44.222Z,70.40
2018-10-19T03:46:47.182Z,69.90
2018-10-19T03:49:50.136Z,70.30
2018-10-19T03:52:53.065Z,70.70
2018-10-19T03:55:56.016Z,70.10
2018-10-19T03:58:58.985Z,70.10
2018-10-19T04:02:01.898Z,70.40
2018-10-19T04:05:05.012Z,70.00
2018-10-19T04:08:07.966Z,70.10
2018-10-19T04:11:10.951Z,69.90
2018-10-19T04:14:13.908Z,69.90
2018-10-19T04:17:16.960Z,70.10
2018-10-19T04:20:19.890Z,70.20
2018-10-19T04:23:22.833Z,70.80
2018-10-19T04:26:25.772Z,70.00
2018-10-19T04:29:28.745Z,70.10
2018-10-19T04:32:31.694Z,69.80
2018-10-19T04:35:34.657Z,70.20
2018-10-19T04:38:37.621Z,70.30
2018-10-19T04:41:40.646Z,70.50
2018-10-19T04:44:43.534Z,70.00
2018-10-19T04:47:46.576Z,69.90
2018-10-19T04:50:49.543Z,70.10
2018-10-19T04:53:52.540Z,70.40
2018-10-19T04:56:55.539Z,70.40
2018-10-19T04:59:58.479Z,70.30
2018-10-19T05:03:01.496Z,70.50
2018-10-19T05:06:04.977Z,70.20
2018-10-19T05:09:09.944Z,70.60
2018-10-19T05:12:12.913Z,71.10
2018-10-19T05:15:15.896Z,71.70
2018-10-19T05:18:18.888Z,70.80
2018-10-19T05:21:21.861Z,71.00
2018-10-19T05:24:25.097Z,71.20
2018-10-19T05:27:28.024Z,71.40
2018-10-19T05:30:30.979Z,72.00
2018-10-19T05:33:34.065Z,71.50
2018-10-19T05:36:37.081Z,71.50
2018-10-19T05:39:40.054Z,71.70
2018-10-19T05:42:43.033Z,71.70
2018-10-19T05:45:45.963Z,71.90
2018-10-19T05:48:48.959Z,71.80
2018-10-19T05:51:51.965Z,71.60
2018-10-19T05:54:54.942Z,71.70
2018-10-19T05:57:57.918Z,71.60
2018-10-19T06:01:00.903Z,71.70
2018-10-19T06:04:04.160Z,71.60
2018-10-19T06:07:07.179Z,71.70
2018-10-19T06:10:10.227Z,71.90
2018-10-19T06:13:13.154Z,71.70
2018-10-19T06:16:16.150Z,72.20
2018-10-19T06:19:20.059Z,72.20
2018-10-19T06:22:23.017Z,72.20
2018-10-19T06:25:25.961Z,72.40
2018-10-19T06:28:28.954Z,71.80
2018-10-19T06:31:31.891Z,71.30
2018-10-19T06:34:34.894Z,71.60
2018-10-19T06:37:37.857Z,72.00
2018-10-19T06:40:40.866Z,72.20
2018-10-19T06:43:43.749Z,72.90
2018-10-19T06:46:46.806Z,72.50
2018-10-19T06:49:49.727Z,72.20
2018-10-19T06:52:52.896Z,72.20
2018-10-19T06:55:55.909Z,72.20
2018-10-19T06:58:58.877Z,72.20
2018-10-19T07:02:01.849Z,72.10
2018-10-19T07:05:05.308Z,71.80
2018-10-19T07:08:08.407Z,71.90
2018-10-19T07:11:11.260Z,72.20
2018-10-19T07:14:14.218Z,72.50
2018-10-19T07:17:17.238Z,72.70
2018-10-19T07:20:20.141Z,72.50
2018-10-19T07:23:23.106Z,72.00
2018-10-19T07:26:26.064Z,72.30
2018-10-19T07:29:29.021Z,71.90
2018-10-19T07:32:31.941Z,73.00
2018-10-19T07:35:34.885Z,72.10
2018-10-19T07:38:37.828Z,72.10
2018-10-19T07:41:40.852Z,72.20
2018-10-19T07:44:43.750Z,72.80
2018-10-19T07:47:46.726Z,72.60
2018-10-19T07:50:49.599Z,72.80
2018-10-19T07:53:52.549Z,72.10
2018-10-19T07:56:55.513Z,71.90
2018-10-19T07:59:58.439Z,72.00
2018-10-19T08:03:01.394Z,71.80
2018-10-19T08:06:04.335Z,72.00
2018-10-19T08:09:09.397Z,71.80
2018-10-19T08:12:12.318Z,71.60
2018-10-19T08:15:15.271Z,77.30
2018-10-19T08:18:18.244Z,69.40
2018-10-19T08:21:21.149Z,69.60
2018-10-19T08:24:24.074Z,70.40
2018-10-19T08:27:27.005Z,71.00
2018-10-19T08:30:29.907Z,71.50
2018-10-19T08:33:32.821Z,71.30
2018-10-19T08:36:35.730Z,71.40
2018-10-19T08:39:38.660Z,71.60
2018-10-19T08:42:41.582Z,71.70
2018-10-19T08:45:44.630Z,71.90
2018-10-19T08:48:47.561Z,71.80
2018-10-19T08:51:50.544Z,72.20
2018-10-19T08:54:53.551Z,72.10
2018-10-19T08:57:56.522Z,72.50
2018-10-19T09:00:59.442Z,72.70
2018-10-19T09:04:02.439Z,72.30
2018-10-19T09:07:05.403Z,73.50
2018-10-19T09:10:08.720Z,72.50
2018-10-19T09:13:11.740Z,72.50
2018-10-19T09:16:14.701Z,73.20
2018-10-19T09:19:17.707Z,72.40
2018-10-19T09:22:20.956Z,73.20
2018-10-19T09:25:23.901Z,74.10
2018-10-19T09:28:26.866Z,66.80
2018-10-19T09:31:29.813Z,68.00
2018-10-19T09:34:32.905Z,69.50
2018-10-19T09:37:35.909Z,70.30
2018-10-19T09:40:39.326Z,71.70
2018-10-19T09:43:42.228Z,72.50
2018-10-19T09:46:45.176Z,71.80
2018-10-19T09:49:48.168Z,71.90
2018-10-19T09:52:51.110Z,71.80
2018-10-19T09:55:54.092Z,71.60
2018-10-19T09:58:57.047Z,71.70
2018-10-19T10:01:59.965Z,72.70
2018-10-19T10:05:02.960Z,72.70
2018-10-19T10:08:05.938Z,72.60
2018-10-19T10:11:08.844Z,73.00
2018-10-19T10:14:11.873Z,72.30
2018-10-19T10:17:14.869Z,72.50
2018-10-19T10:20:17.782Z,72.50
2018-10-19T10:23:20.754Z,72.50
2018-10-19T10:26:23.701Z,72.60
2018-10-19T10:29:26.675Z,72.10
2018-10-19T10:32:29.642Z,67.40
2018-10-19T10:35:32.485Z,68.70
2018-10-19T10:38:35.416Z,69.60
2018-10-19T10:41:38.409Z,70.10
2018-10-19T10:44:41.369Z,70.40
2018-10-19T10:47:44.343Z,70.50
2018-10-19T10:50:47.262Z,71.40
2018-10-19T10:53:50.165Z,71.30
2018-10-19T10:56:53.109Z,72.20
2018-10-19T10:59:56.053Z,71.80
2018-10-19T11:02:58.957Z,70.90
2018-10-19T11:06:02.229Z,70.80
2018-10-19T11:09:08.218Z,70.10
2018-10-19T11:12:11.134Z,71.50
2018-10-19T11:15:14.085Z,71.50
2018-10-19T11:18:17.418Z,71.30
2018-10-19T11:21:20.766Z,70.30
2018-10-19T11:24:23.975Z,69.00
2018-10-19T11:27:27.344Z,70.30
2018-10-19T11:30:30.518Z,68.70
2018-10-19T11:33:34.568Z,69.50
2018-10-19T11:36:37.742Z,69.50
2018-10-19T11:39:58.607Z,69.20
2018-10-19T11:43:02.309Z,67.60
2018-10-19T11:46:06.134Z,67.40
2018-10-19T11:49:09.246Z,67.90
2018-10-19T11:52:12.214Z,69.30
2018-10-19T11:55:15.216Z,67.60
2018-10-19T11:58:18.160Z,66.90
2018-10-19T12:01:21.105Z,67.30
2018-10-19T12:04:24.050Z,65.80
2018-10-19T12:07:26.972Z,67.20
2018-10-19T12:10:29.943Z,66.30
2018-10-19T12:13:32.830Z,66.30
2018-10-19T12:16:35.781Z,68.80
2018-10-19T12:19:38.685Z,68.90
2018-10-19T12:22:41.617Z,69.20
2018-10-19T12:25:44.595Z,68.80
2018-10-19T12:28:47.525Z,68.70
2018-10-19T12:31:50.475Z,67.60
2018-10-19T12:34:53.574Z,67.90
2018-10-19T12:37:56.495Z,66.90
2018-10-19T12:40:59.405Z,66.20
2018-10-19T12:44:02.333Z,65.40
2018-10-19T12:47:22.548Z,66.00
2018-10-19T12:50:25.429Z,66.70
2018-10-19T12:53:28.404Z,66.80
2018-10-19T12:56:34.349Z,66.70
2018-10-19T12:59:37.434Z,67.90
2018-10-19T13:02:40.334Z,66.70
2018-10-19T13:05:43.260Z,64.60
2018-10-19T13:08:46.201Z,64.90
2018-10-19T13:11:49.138Z,64.10
2018-10-19T13:14:52.104Z,64.10
2018-10-19T13:17:55.024Z,64.30
2018-10-19T13:20:58.291Z,65.10
2018-10-19T13:24:01.246Z,64.30
2018-10-19T13:27:04.305Z,63.40
2018-10-19T13:30:07.332Z,62.50
2018-10-19T13:33:10.474Z,62.80
2018-10-19T13:36:13.454Z,61.80
2018-10-19T13:39:16.412Z,62.20
2018-10-19T13:42:19.272Z,62.30
2018-10-19T13:45:22.212Z,61.40
2018-10-19T13:48:25.151Z,62.80
2018-10-19T13:51:28.122Z,62.60
2018-10-19T13:54:31.201Z,64.70
2018-10-19T13:57:34.095Z,64.10
2018-10-19T14:00:37.021Z,64.60
2018-10-19T14:03:39.955Z,65.90
2018-10-19T14:06:42.864Z,66.10
2018-10-19T14:09:45.782Z,66.40
2018-10-19T14:12:48.757Z,67.20
2018-10-19T14:15:51.740Z,66.30
2018-10-19T14:18:54.654Z,66.40
2018-10-19T14:21:57.606Z,66.80
2018-10-19T14:25:00.665Z,67.20
2018-10-19T14:28:03.612Z,66.60
2018-10-19T14:31:06.591Z,67.00
2018-10-19T14:34:09.528Z,67.40
2018-10-19T14:37:12.449Z,67.30
2018-10-19T14:40:17.793Z,68.20
2018-10-19T14:43:20.759Z,67.40
2018-10-19T14:46:23.709Z,66.90
2018-10-19T14:49:26.644Z,67.00
2018-10-19T14:52:29.621Z,67.50
2018-10-19T14:55:32.540Z,68.60
2018-10-19T14:58:35.437Z,68.10
2018-10-19T15:01:38.361Z,67.60
2018-10-19T15:04:41.262Z,67.20
2018-10-19T15:07:44.191Z,67.90
2018-10-19T15:10:47.416Z,69.30
2018-10-19T15:13:50.089Z,66.80
2018-10-19T15:16:53.042Z,67.60
2018-10-19T15:19:55.974Z,68.50
2018-10-19T15:22:58.890Z,67.70
2018-10-19T15:26:02.554Z,67.30
2018-10-19T15:29:05.844Z,67.40
2018-10-19T15:32:09.253Z,68.10
2018-10-19T15:35:12.843Z,68.30
2018-10-19T15:38:16.593Z,67.40
2018-10-19T15:41:19.784Z,67.70
2018-10-19T15:44:22.985Z,67.20
2018-10-19T15:47:28.334Z,67.80
2018-10-19T15:50:31.466Z,67.90
2018-10-19T15:53:34.777Z,68.30
2018-10-19T15:56:38.072Z,68.80
2018-10-19T15:59:41.078Z,68.70
2018-10-19T16:02:45.227Z,68.70
2018-10-19T16:05:48.500Z,68.80
2018-10-19T16:08:51.934Z,69.10
2018-10-19T16:11:55.474Z,69.70
2018-10-19T16:14:58.776Z,69.70
2018-10-19T16:18:01.710Z,69.50
2018-10-19T16:21:05.038Z,69.50
2018-10-19T16:24:07.979Z,69.70
2018-10-19T16:27:11.042Z,69.40
2018-10-19T16:30:14.055Z,69.70
2018-10-19T16:33:16.986Z,69.20
2018-10-19T16:36:19.987Z,68.90
2018-10-19T16:39:22.945Z,69.00
2018-10-19T16:42:25.889Z,68.80
2018-10-19T16:45:28.822Z,69.00
2018-10-19T16:48:31.835Z,69.10
2018-10-19T16:51:34.793Z,69.30
2018-10-19T16:54:37.693Z,69.10
2018-10-19T16:57:40.627Z,69.50
2018-10-19T17:00:43.587Z,69.30
2018-10-19T17:03:46.497Z,71.10
2018-10-19T17:06:49.432Z,71.00
2018-10-19T17:09:52.436Z,70.40
2018-10-19T17:12:55.474Z,71.20
2018-10-19T17:15:58.390Z,71.80
2018-10-19T17:19:01.895Z,72.00
2018-10-19T17:22:05.359Z,72.30
2018-10-19T17:25:10.184Z,71.70
2018-10-19T17:28:13.073Z,71.50
2018-10-19T17:31:16.133Z,71.90
2018-10-19T17:34:18.974Z,71.60
2018-10-19T17:37:21.917Z,71.80
2018-10-19T17:40:24.859Z,71.50
2018-10-19T17:43:27.883Z,71.50
2018-10-19T17:46:30.858Z,72.10
2018-10-19T17:49:33.836Z,71.80
2018-10-19T17:52:37.067Z,71.80
2018-10-19T17:55:40.012Z,71.30
2018-10-19T17:58:43.010Z,71.40
2018-10-19T18:01:46.006Z,71.40
2018-10-19T18:04:49.048Z,71.50
2018-10-19T18:07:51.950Z,71.80
2018-10-19T18:10:54.950Z,71.40
2018-10-19T18:13:57.954Z,71.30
2018-10-19T18:17:00.978Z,71.40
2018-10-19T18:20:04.003Z,71.20
2018-10-19T18:23:07.102Z,70.60
2018-10-19T18:26:10.007Z,70.90
2018-10-19T18:29:12.976Z,71.20
2018-10-19T18:32:16.012Z,70.60
2018-10-19T18:35:18.977Z,70.20
2018-10-19T18:38:21.880Z,70.40
2018-10-19T18:41:24.833Z,70.30
2018-10-19T18:44:27.766Z,70.40
2018-10-19T18:47:30.723Z,70.50
2018-10-19T18:50:33.679Z,70.40
2018-10-19T18:53:36.779Z,70.50
2018-10-19T18:56:40.063Z,70.00
2018-10-19T18:59:43.080Z,69.70
2018-10-19T19:02:46.189Z,69.80
2018-10-19T19:05:49.521Z,69.80
2018-10-19T19:08:53.115Z,69.70
2018-10-19T19:11:56.473Z,69.40
2018-10-19T19:14:59.574Z,69.20
2018-10-19T19:18:02.542Z,69.00
2018-10-19T19:21:05.942Z,69.60
2018-10-19T19:24:15.037Z,69.30
2018-10-19T19:27:18.378Z,69.40
2018-10-19T19:30:21.596Z,69.30
2018-10-19T19:33:30.331Z,69.60
2018-10-19T19:36:33.693Z,69.90
2018-10-19T19:39:37.166Z,70.00
2018-10-19T19:42:43.014Z,70.40
2018-10-19T19:45:46.240Z,69.90
2018-10-19T19:48:55.755Z,69.60
2018-10-19T19:51:59.119Z,69.50
2018-10-19T19:55:02.708Z,69.70
2018-10-19T19:58:06.392Z,69.30
2018-10-19T20:01:09.972Z,69.90
2018-10-19T20:04:16.992Z,69.60
2018-10-19T20:07:20.397Z,71.90
2018-10-19T20:10:24.012Z,70.70
2018-10-19T20:13:27.402Z,69.00
2018-10-19T20:16:30.729Z,68.30
2018-10-19T20:19:34.382Z,68.70
2018-10-19T20:22:37.953Z,68.70
2018-10-19T20:25:41.309Z,69.20
2018-10-19T20:28:44.927Z,68.60
2018-10-19T20:31:47.807Z,69.10
2018-10-19T20:34:51.187Z,69.50
2018-10-19T20:37:55.187Z,69.20
2018-10-19T20:40:59.310Z,69.10
2018-10-19T20:44:02.328Z,68.40
2018-10-19T20:47:05.917Z,68.70
2018-10-19T20:50:08.975Z,69.50
2018-10-19T20:53:11.981Z,69.30
2018-10-19T20:56:14.944Z,68.90
2018-10-19T20:59:17.935Z,68.60
2018-10-19T21:02:21.000Z,69.90
2018-10-19T21:05:23.960Z,68.50
2018-10-19T21:08:27.002Z,68.20
2018-10-19T21:11:30.007Z,68.70
2018-10-19T21:14:33.018Z,68.30
2018-10-19T21:17:36.538Z,68.00
2018-10-19T21:20:39.856Z,67.60
2018-10-19T21:23:43.055Z,67.50
2018-10-19T21:26:46.250Z,67.50
2018-10-19T21:29:49.187Z,67.80
2018-10-19T21:32:52.134Z,67.50
2018-10-19T21:35:55.119Z,68.00
2018-10-19T21:38:58.098Z,67.60
2018-10-19T21:42:01.051Z,67.60
2018-10-19T21:45:04.350Z,67.30
2018-10-19T21:48:07.315Z,67.80
2018-10-19T21:51:17.016Z,67.50
2018-10-19T21:54:19.989Z,67.70
2018-10-19T21:57:22.978Z,67.70
2018-10-19T22:00:26.053Z,68.00
2018-10-19T22:03:29.031Z,67.90
2018-10-19T22:06:32.038Z,67.10
2018-10-19T22:09:34.959Z,66.90
2018-10-19T22:12:37.878Z,67.10
2018-10-19T22:15:40.872Z,67.40
2018-10-19T22:18:43.857Z,66.80
2018-10-19T22:21:46.824Z,67.10
2018-10-19T22:24:49.843Z,67.30
2018-10-19T22:27:52.798Z,67.30
2018-10-19T22:30:55.787Z,67.20
2018-10-19T22:33:58.711Z,66.80
2018-10-19T22:37:01.648Z,66.90
2018-10-19T22:40:05.172Z,66.20
2018-10-19T22:43:08.239Z,66.80
2018-10-19T22:46:11.153Z,67.00
2018-10-19T22:49:14.162Z,66.20
2018-10-19T22:52:17.042Z,65.90
2018-10-19T22:55:20.002Z,66.10
2018-10-19T22:58:23.098Z,66.40
2018-10-19T23:01:26.125Z,66.50
2018-10-19T23:04:29.081Z,66.20
2018-10-19T23:07:32.061Z,66.50
2018-10-19T23:10:35.095Z,66.10
2018-10-19T23:13:38.050Z,66.10
2018-10-19T23:16:41.055Z,66.20
2018-10-19T23:19:44.003Z,66.10
2018-10-19T23:22:47.031Z,66.70
2018-10-19T23:25:49.966Z,66.40
2018-10-19T23:28:52.944Z,66.60
2018-10-19T23:31:55.956Z,66.70
2018-10-19T23:34:58.976Z,66.40
2018-10-19T23:38:02.102Z,65.80
2018-10-19T23:41:05.160Z,65.40
2018-10-19T23:44:08.249Z,65.40
2018-10-19T23:47:11.251Z,64.60
2018-10-19T23:50:14.157Z,65.10
2018-10-19T23:53:17.186Z,64.50
2018-10-19T23:56:20.146Z,64.80
2018-10-19T23:59:23.057Z,65.60
